$GPRMC,235959,A,4811.0335,N,00824.7688,E,002.9,096.5,210907,,,A*76 $GPRMC,235959,A,4811.0337,N,00824.7648,E,006.5,109.8,210907,,,A*73 $GPRMC,235959,A,4811.0297,N,00824.7934,E,003.3,100.4,210907,,,A*70 $GPRMC,235959,A,4811.0300,N,00824.8079,E,003.3,100.0,210907,,,A*79 $GPRMC,235959,A,4811.0290,N,00824.8258,E,002.6,107.2,210907,,,A*70 $GPRMC,235959,A,4811.0268,N,00824.8447,E,003.3,108.2,210907,,,A*7D $GPRMC,235959,A,4811.0275,N,00824.8554,E,001.2,086.9,210907,,,A*77 $GPRMC,235959,A,4811.0273,N,00824.8632,E,000.6,086.9,210907,,,A*7A $GPRMC,235959,A,4811.0274,N,00824.8674,E,002.3,087.3,210907,,,A*7C $GPRMC,235959,A,4811.0259,N,00824.8916,E,001.9,083.1,210907,,,A*7F $GPRMC,235959,A,4811.0250,N,00824.9139,E,000.4,101.5,210907,,,A*7D $GPRMC,235959,A,4811.0253,N,00824.9235,E,003.1,101.8,210907,,,A*78 $GPRMC,235959,A,4811.0249,N,00824.9414,E,002.5,093.9,210907,,,A*72 $GPRMC,235959,A,4811.0269,N,00824.9428,E,002.5,093.9,210907,,,A*76 $GPRMC,235959,A,4811.0249,N,00824.9612,E,003.2,107.7,210907,,,A*77 $GPRMC,235959,A,4811.0229,N,00824.9841,E,003.6,101.7,210907,,,A*75 $GPRMC,235959,A,4811.0218,N,00825.0028,E,002.8,099.2,210907,,,A*78 $GPRMC,235959,A,4811.0200,N,00825.0183,E,002.6,106.9,210907,,,A*7A $GPRMC,235959,A,4811.0151,N,00825.0382,E,003.3,104.9,210907,,,A*74 $GPRMC,235959,A,4811.0144,N,00825.0407,E,001.0,104.9,210907,,,A*77 $GPRMC,235959,A,4811.0110,N,00825.0633,E,002.9,101.8,210907,,,A*77 $GPRMC,235959,A,4811.0062,N,00825.0592,E,002.9,177.5,210907,,,A*7E $GPRMC,235959,A,4810.9943,N,00825.0638,E,003.3,165.5,210907,,,A*7B $GPRMC,235959,A,4810.9849,N,00825.0679,E,002.7,160.5,210907,,,A*7B $GPRMC,235959,A,4810.9735,N,00825.0803,E,002.8,148.7,210907,,,A*71 $GPRMC,235959,A,4810.9666,N,00825.0837,E,000.5,165.5,210907,,,A*7A $GPRMC,235959,A,4810.9597,N,00825.0893,E,002.4,153.3,210907,,,A*75 $GPRMC,235959,A,4810.9495,N,00825.0993,E,003.1,144.0,210907,,,A*7E $GPRMC,235959,A,4810.9400,N,00825.1098,E,002.8,141.3,210907,,,A*75 $GPRMC,235959,A,4810.9333,N,00825.1115,E,001.2,178.5,210907,,,A*7A $GPRMC,235959,A,4810.9267,N,00825.1159,E,002.7,147.9,210907,,,A*78 $GPRMC,235959,A,4810.9192,N,00825.1241,E,001.7,129.5,210907,,,A*72 $GPRMC,235959,A,4810.9160,N,00825.1358,E,001.8,115.4,210907,,,A*7D $GPRMC,235959,A,4810.9126,N,00825.1539,E,002.8,108.1,210907,,,A*7D $GPRMC,235959,A,4810.9105,N,00825.1695,E,001.1,143.9,210907,,,A*78 $GPRMC,235959,A,4810.9089,N,00825.1742,E,000.3,143.9,210907,,,A*79 $GPRMC,235959,A,4810.9087,N,00825.1736,E,001.4,143.9,210907,,,A*78 $GPRMC,235959,A,4810.9017,N,00825.1845,E,002.7,129.1,210907,,,A*77 $GPRMC,235959,A,4810.8938,N,00825.1991,E,001.7,152.4,210907,,,A*7C $GPRMC,235959,A,4810.8900,N,00825.2006,E,001.6,152.4,210907,,,A*7C $GPRMC,235959,A,4810.8794,N,00825.2080,E,003.2,145.7,210907,,,A*78 $GPRMC,235959,A,4810.8684,N,00825.2132,E,002.7,174.7,210907,,,A*7F $GPRMC,235959,A,4810.8531,N,00825.2254,E,008.4,150.5,210907,,,A*70 $GPRMC,235959,A,4810.8511,N,00825.2269,E,002.5,133.0,210907,,,A*77 $GPRMC,235959,A,4810.8482,N,00825.2330,E,000.3,128.5,210907,,,A*70 $GPRMC,235959,A,4810.8562,N,00825.2474,E,004.2,100.9,210907,,,A*79 $GPRMC,235959,A,4810.8609,N,00825.2623,E,002.0,041.2,210907,,,A*71 $GPRMC,235959,A,4810.8647,N,00825.2775,E,003.0,063.9,210907,,,A*7C $GPRMC,235959,A,4810.8659,N,00825.2898,E,000.4,081.1,210907,,,A*75 $GPRMC,235959,A,4810.8677,N,00825.2932,E,002.9,081.1,210907,,,A*7D $GPRMC,235959,A,4810.8787,N,00825.3026,E,003.7,056.7,210907,,,A*70 $GPRMC,235959,A,4810.8855,N,00825.3168,E,003.1,056.7,210907,,,A*7B $GPRMC,235959,A,4810.8927,N,00825.3273,E,003.3,024.5,210907,,,A*7A $GPRMC,235959,A,4810.9025,N,00825.3306,E,006.2,016.7,210907,,,A*7E $GPRMC,235959,A,4810.9042,N,00825.3357,E,000.7,342.0,210907,,,A*70 $GPRMC,235959,A,4810.9002,N,00825.3390,E,000.2,338.7,210907,,,A*7F $GPRMC,235959,A,4810.8977,N,00825.3408,E,000.4,338.7,210907,,,A*7C $GPRMC,235959,A,4810.8958,N,00825.3424,E,000.0,340.3,210907,,,A*7A $GPRMC,235959,A,4810.8951,N,00825.3426,E,000.1,340.3,210907,,,A*7D $GPRMC,235959,A,4810.8905,N,00825.3401,E,000.9,243.0,210907,,,A*7D $GPRMC,235959,A,4810.8889,N,00825.3530,E,004.8,243.0,210907,,,A*77 $GPRMC,235959,A,4810.8945,N,00825.3730,E,006.7,083.3,210907,,,A*7E $GPRMC,235959,A,4810.9128,N,00825.3718,E,006.8,123.3,210907,,,A*7F $GPRMC,235959,A,4810.9141,N,00825.3894,E,002.4,123.3,210907,,,A*7C $GPRMC,235959,A,4810.9168,N,00825.4097,E,003.3,047.7,210907,,,A*73 $GPRMC,235959,A,4810.9180,N,00825.4303,E,003.0,092.9,210907,,,A*74 $GPRMC,235959,A,4810.9365,N,00825.4456,E,000.0,075.8,210907,,,A*7E $GPRMC,235959,A,4810.9293,N,00825.4626,E,000.0,075.8,210907,,,A*79 $GPRMC,235959,A,4810.9315,N,00825.4577,E,000.0,075.8,210907,,,A*78 $GPRMC,235959,A,4810.9315,N,00825.4563,E,000.0,075.8,210907,,,A*71 $GPRMC,235959,A,4810.9316,N,00825.4568,E,000.0,075.8,210907,,,A*77 $GPRMC,235959,A,4810.9323,N,00825.4625,E,000.7,089.3,210907,,,A*7E $GPRMC,235959,A,4810.9237,N,00825.4684,E,003.6,144.1,210907,,,A*78 $GPRMC,235959,A,4810.9117,N,00825.4737,E,002.3,195.7,210907,,,A*72 $GPRMC,235959,A,4810.9074,N,00825.4561,E,001.5,196.6,210907,,,A*77 $GPRMC,235959,A,4810.8939,N,00825.4640,E,003.3,152.4,210907,,,A*71 $GPRMC,235959,A,4810.8820,N,00825.4690,E,002.6,166.5,210907,,,A*7D $GPRMC,235959,A,4810.8708,N,00825.4755,E,002.7,157.5,210907,,,A*7E $GPRMC,235959,A,4810.8619,N,00825.4835,E,001.9,155.3,210907,,,A*70 $GPRMC,235959,A,4810.8558,N,00825.4869,E,000.2,157.3,210907,,,A*7E $GPRMC,235959,A,4810.8572,N,00825.4835,E,001.0,163.9,210907,,,A*7B $GPRMC,235959,A,4810.8575,N,00825.4861,E,003.2,125.8,210907,,,A*73 $GPRMC,235959,A,4810.8469,N,00825.4968,E,002.9,146.5,210907,,,A*74 $GPRMC,235959,A,4810.8385,N,00825.5071,E,002.4,135.8,210907,,,A*7C $GPRMC,235959,A,4810.8282,N,00825.5139,E,003.2,155.2,210907,,,A*76 $GPRMC,235959,A,4810.8170,N,00825.5098,E,003.0,206.4,210907,,,A*7E $GPRMC,235959,A,4810.8086,N,00825.4978,E,003.4,230.2,210907,,,A*78 $GPRMC,235959,A,4810.8033,N,00825.4934,E,000.7,198.7,210907,,,A*73 $GPRMC,235959,A,4810.7961,N,00825.4840,E,003.0,220.8,210907,,,A*71 $GPRMC,235959,A,4810.7873,N,00825.4694,E,003.1,232.2,210907,,,A*71 $GPRMC,235959,A,4810.7804,N,00825.4621,E,002.1,214.1,210907,,,A*7D $GPRMC,235959,A,4810.7700,N,00825.4539,E,002.8,208.8,210907,,,A*78 $GPRMC,235959,A,4810.7530,N,00825.4546,E,002.6,202.5,210907,,,A*72 $GPRMC,235959,A,4810.7484,N,00825.4428,E,002.6,213.1,210907,,,A*7C $GPRMC,235959,A,4810.7353,N,00825.4360,E,002.6,193.7,210907,,,A*78 $GPRMC,235959,A,4810.7270,N,00825.4348,E,001.9,208.7,210907,,,A*76 $GPRMC,235959,A,4810.7198,N,00825.4239,E,002.2,230.9,210907,,,A*73 $GPRMC,235959,A,4810.7193,N,00825.4167,E,000.2,219.8,210907,,,A*75 $GPRMC,235959,A,4810.7168,N,00825.4208,E,002.3,189.6,210907,,,A*71 $GPRMC,235959,A,4810.7112,N,00825.4374,E,003.4,118.5,210907,,,A*72 $GPRMC,235959,A,4810.7075,N,00825.4520,E,002.3,082.9,210907,,,A*77 $GPRMC,235959,A,4810.7071,N,00825.4626,E,002.9,106.2,210907,,,A*77 $GPRMC,235959,A,4810.7087,N,00825.4725,E,002.5,065.9,210907,,,A*70 $GPRMC,235959,A,4810.7107,N,00825.4823,E,002.4,106.2,210907,,,A*77 $GPRMC,235959,A,4810.7044,N,00825.5035,E,002.2,114.1,210907,,,A*73 $GPRMC,235959,A,4810.6958,N,00825.5249,E,002.8,116.5,210907,,,A*7E $GPRMC,235959,A,4810.6939,N,00825.5278,E,003.3,123.6,210907,,,A*7D $GPRMC,235959,A,4810.6881,N,00825.5413,E,002.3,127.3,210907,,,A*7D $GPRMC,235959,A,4810.6792,N,00825.5621,E,002.7,126.8,210907,,,A*77 $GPRMC,235959,A,4810.6750,N,00825.5649,E,002.5,115.9,210907,,,A*79 $GPRMC,235959,A,4810.6688,N,00825.5870,E,002.9,110.1,210907,,,A*77 $GPRMC,235959,A,4810.6696,N,00825.6001,E,003.0,114.2,210907,,,A*73 $GPRMC,235959,A,4810.6526,N,00825.6242,E,001.7,127.3,210907,,,A*70 $GPRMC,235959,A,4810.6528,N,00825.6270,E,002.0,078.8,210907,,,A*76 $GPRMC,235959,A,4810.6495,N,00825.6359,E,003.0,112.4,210907,,,A*76 $GPRMC,235959,A,4810.6394,N,00825.6596,E,003.6,122.6,210907,,,A*7B $GPRMC,235959,A,4810.6335,N,00825.6783,E,002.0,108.7,210907,,,A*72 $GPRMC,235959,A,4810.6255,N,00825.6996,E,008.5,096.6,210907,,,A*7A $GPRMC,235959,A,4810.6124,N,00825.7157,E,002.0,143.6,210907,,,A*72 $GPRMC,235959,A,4810.6152,N,00825.7156,E,000.2,142.9,210907,,,A*75 $GPRMC,235959,A,4810.6157,N,00825.7168,E,000.9,142.9,210907,,,A*7C $GPRMC,235959,A,4810.6023,N,00825.7414,E,000.8,142.9,210907,,,A*7C $GPRMC,235959,A,4810.5915,N,00825.7581,E,002.7,125.3,210907,,,A*79 $GPRMC,235959,A,4810.6073,N,00825.7454,E,000.3,125.3,210907,,,A*75 $GPRMC,235959,A,4810.6072,N,00825.7491,E,002.3,093.6,210907,,,A*7C $GPRMC,235959,A,4810.6030,N,00825.7614,E,001.5,113.5,210907,,,A*77 $GPRMC,235959,A,4810.5963,N,00825.7757,E,003.0,129.6,210907,,,A*7F $GPRMC,235959,A,4810.5911,N,00825.7838,E,001.2,137.3,210907,,,A*7F $GPRMC,235959,A,4810.5879,N,00825.8060,E,002.6,107.8,210907,,,A*7F $GPRMC,235959,A,4810.5860,N,00825.8227,E,001.4,066.0,210907,,,A*7F $GPRMC,235959,A,4810.5837,N,00825.8418,E,002.6,116.2,210907,,,A*75 $GPRMC,235959,A,4810.5801,N,00825.8496,E,001.7,100.9,210907,,,A*70 $GPRMC,235959,A,4810.5743,N,00825.8647,E,002.5,109.2,210907,,,A*79 $GPRMC,235959,A,4810.5736,N,00825.8721,E,002.8,124.1,210907,,,A*71 $GPRMC,235959,A,4810.5565,N,00825.9079,E,002.9,123.3,210907,,,A*74 $GPRMC,235959,A,4810.5564,N,00825.9170,E,001.6,123.3,210907,,,A*79 $GPRMC,235959,A,4810.5524,N,00825.9392,E,005.5,108.2,210907,,,A*71 $GPRMC,235959,A,4810.5499,N,00825.9710,E,000.4,106.9,210907,,,A*73 $GPRMC,235959,A,4810.5479,N,00825.9794,E,003.3,106.9,210907,,,A*79 $GPRMC,235959,A,4810.5448,N,00825.9928,E,001.0,109.0,210907,,,A*7D $GPRMC,235959,A,4810.5452,N,00825.9931,E,002.0,112.2,210907,,,A*78 $GPRMC,235959,A,4810.5437,N,00825.9989,E,001.4,111.1,210907,,,A*75 $GPRMC,235959,A,4810.5396,N,00826.0077,E,001.2,119.9,210907,,,A*73 $GPRMC,235959,A,4810.5413,N,00826.0077,E,000.1,119.9,210907,,,A*73 $GPRMC,235959,A,4810.5443,N,00826.0047,E,000.4,119.9,210907,,,A*7D $GPRMC,235959,A,4810.5464,N,00826.0036,E,000.3,119.9,210907,,,A*73 $GPRMC,235959,A,4810.5397,N,00826.0055,E,000.5,163.3,210907,,,A*74 $GPRMC,235959,A,4810.5396,N,00826.0091,E,000.2,168.2,210907,,,A*78 $GPRMC,235959,A,4810.5420,N,00826.0081,E,000.1,168.2,210907,,,A*7D $GPRMC,235959,A,4810.5388,N,00826.0262,E,003.2,106.1,210907,,,A*76 $GPRMC,235959,A,4810.5390,N,00826.0404,E,002.6,089.9,210907,,,A*7C $GPRMC,235959,A,4810.5318,N,00826.0646,E,002.5,110.8,210907,,,A*73 $GPRMC,235959,A,4810.5301,N,00826.0765,E,002.0,110.5,210907,,,A*7E $GPRMC,235959,A,4810.5239,N,00826.1020,E,002.5,103.8,210907,,,A*73 $GPRMC,235959,A,4810.5205,N,00826.1156,E,002.3,117.5,210907,,,A*7E $GPRMC,235959,A,4810.5194,N,00826.1381,E,002.0,098.8,210907,,,A*7D $GPRMC,235959,A,4810.5139,N,00826.1646,E,004.1,109.0,210907,,,A*7F $GPRMC,235959,A,4810.5093,N,00826.1856,E,003.7,115.8,210907,,,A*7F $GPRMC,235959,A,4810.5029,N,00826.1909,E,000.8,146.1,210907,,,A*78 $GPRMC,235959,A,4810.4959,N,00826.2014,E,003.3,134.0,210907,,,A*75 $GPRMC,235959,A,4810.4900,N,00826.2148,E,003.1,116.8,210907,,,A*76 $GPRMC,235959,A,4810.4862,N,00826.2255,E,003.2,124.4,210907,,,A*78 $GPRMC,235959,A,4810.4826,N,00826.2343,E,002.1,116.3,210907,,,A*7A $GPRMC,235959,A,4810.4732,N,00826.2553,E,003.7,114.6,210907,,,A*7F $GPRMC,235959,A,4810.4726,N,00826.2633,E,002.5,121.9,210907,,,A*78 $GPRMC,235959,A,4810.4689,N,00826.2749,E,003.3,116.1,210907,,,A*71 $GPRMC,235959,A,4810.4624,N,00826.2980,E,002.5,110.7,210907,,,A*74 $GPRMC,235959,A,4810.4638,N,00826.3087,E,004.8,098.1,210907,,,A*72 $GPRMC,235959,A,4810.4632,N,00826.3322,E,004.3,095.8,210907,,,A*76 $GPRMC,235959,A,4810.4571,N,00826.3485,E,003.1,113.0,210907,,,A*70 $GPRMC,235959,A,4810.4552,N,00826.3616,E,002.2,113.3,210907,,,A*79 $GPRMC,235959,A,4810.4538,N,00826.3656,E,000.2,110.6,210907,,,A*7D $GPRMC,235959,A,4810.4557,N,00826.3642,E,002.0,151.6,210907,,,A*79 $GPRMC,235959,A,4810.4502,N,00826.3631,E,002.3,212.4,210907,,,A*72 $GPRMC,235959,A,4810.4384,N,00826.3579,E,003.4,218.9,210907,,,A*7A $GPRMC,235959,A,4810.4271,N,00826.3458,E,003.7,215.6,210907,,,A*7A $GPRMC,235959,A,4810.4210,N,00826.3324,E,003.3,225.1,210907,,,A*7C $GPRMC,235959,A,4810.4195,N,00826.3302,E,000.4,253.6,210907,,,A*7E $GPRMC,235959,A,4810.4133,N,00826.3261,E,003.0,213.0,210907,,,A*7F $GPRMC,235959,A,4810.4032,N,00826.3154,E,002.2,207.4,210907,,,A*70 $GPRMC,235959,A,4810.3980,N,00826.3036,E,002.2,244.0,210907,,,A*7C $GPRMC,235959,A,4810.3929,N,00826.2914,E,002.2,204.7,210907,,,A*7E $GPRMC,235959,A,4810.3867,N,00826.2799,E,002.2,203.0,210907,,,A*70 $GPRMC,235959,A,4810.3734,N,00826.2839,E,001.5,155.4,210907,,,A*74 $GPRMC,235959,A,4810.3677,N,00826.2939,E,001.3,116.2,210907,,,A*79 $GPRMC,235959,A,4810.3649,N,00826.3014,E,000.8,123.4,210907,,,A*73 $GPRMC,235959,A,4810.3631,N,00826.3058,E,000.1,123.4,210907,,,A*75 $GPRMC,235959,A,4810.3670,N,00826.2901,E,001.1,297.8,210907,,,A*7C $GPRMC,235959,A,4810.3743,N,00826.2764,E,002.4,309.9,210907,,,A*7C $GPRMC,235959,A,4810.3771,N,00826.2650,E,002.3,304.7,210907,,,A*70 $GPRMC,235959,A,4810.3818,N,00826.2507,E,002.4,295.9,210907,,,A*78 $GPRMC,235959,A,4810.3856,N,00826.2367,E,003.0,300.9,210907,,,A*70 $GPRMC,235959,A,4810.3905,N,00826.2236,E,002.6,296.0,210907,,,A*7F $GPRMC,235959,A,4810.3937,N,00826.2112,E,002.7,300.3,210907,,,A*7A $GPRMC,235959,A,4810.3999,N,00826.1956,E,002.4,296.7,210907,,,A*75 $GPRMC,235959,A,4810.4018,N,00826.1833,E,002.7,295.3,210907,,,A*7E $GPRMC,235959,A,4810.4067,N,00826.1679,E,002.5,297.2,210907,,,A*7A $GPRMC,235959,A,4810.4071,N,00826.1580,E,002.4,280.9,210907,,,A*7B $GPRMC,235959,A,4810.4101,N,00826.1555,E,001.8,317.5,210907,,,A*70 $GPRMC,235959,A,4810.4091,N,00826.1538,E,000.4,306.7,210907,,,A*76 $GPRMC,235959,A,4810.4084,N,00826.1423,E,002.1,305.7,210907,,,A*70 $GPRMC,235959,A,4810.4124,N,00826.1299,E,001.5,300.8,210907,,,A*70 $GPRMC,235959,A,4810.4093,N,00826.1289,E,001.2,283.4,210907,,,A*74 $GPRMC,235959,A,4810.4144,N,00826.1045,E,003.7,295.9,210907,,,A*76 $GPRMC,235959,A,4810.4147,N,00826.0885,E,001.5,196.8,210907,,,A*7B $GPRMC,235959,A,4810.4159,N,00826.0801,E,000.8,196.8,210907,,,A*7A $GPRMC,235959,A,4810.4193,N,00826.0783,E,001.6,196.8,210907,,,A*7E $GPRMC,235959,A,4810.4154,N,00826.0748,E,000.7,199.6,210907,,,A*7E $GPRMC,235959,A,4810.4165,N,00826.0816,E,000.1,160.0,210907,,,A*74 $GPRMC,235959,A,4810.4170,N,00826.0812,E,000.8,143.2,210907,,,A*79 $GPRMC,235959,A,4810.4216,N,00826.0760,E,001.5,151.2,210907,,,A*77 $GPRMC,235959,A,4810.4274,N,00826.0666,E,000.5,292.7,210907,,,A*71 $GPRMC,235959,A,4810.4279,N,00826.0666,E,000.2,300.6,210907,,,A*7A $GPRMC,235959,A,4810.4239,N,00826.0722,E,000.2,300.6,210907,,,A*71 $GPRMC,235959,A,4810.4164,N,00826.0858,E,001.7,146.5,210907,,,A*77 $GPRMC,235959,A,4810.4117,N,00826.0921,E,000.8,146.5,210907,,,A*7F $GPRMC,235959,A,4810.4057,N,00826.1011,E,002.5,146.5,210907,,,A*74 $GPRMC,235959,A,4810.4040,N,00826.1007,E,000.3,146.5,210907,,,A*7D $GPRMC,235959,A,4810.4062,N,00826.0980,E,000.2,146.5,210907,,,A*73 $GPRMC,235959,A,4810.4121,N,00826.0899,E,001.0,149.9,210907,,,A*71 $GPRMC,235959,A,4810.4135,N,00826.0841,E,002.4,149.9,210907,,,A*78 $GPRMC,235959,A,4810.4267,N,00826.0700,E,000.4,149.9,210907,,,A*76 $GPRMC,235959,A,4810.4297,N,00826.0529,E,000.5,250.4,210907,,,A*7A $GPRMC,235959,A,4810.4325,N,00826.0499,E,000.4,250.4,210907,,,A*73 $GPRMC,235959,A,4810.4397,N,00826.0537,E,000.4,250.4,210907,,,A*77 $GPRMC,235959,A,4810.4318,N,00826.0494,E,000.9,241.8,210907,,,A*71 $GPRMC,235959,A,4810.4382,N,00826.0487,E,000.3,303.5,210907,,,A*7D $GPRMC,235959,A,4810.4386,N,00826.0443,E,002.6,273.4,210907,,,A*7B $GPRMC,235959,A,4810.4352,N,00826.0413,E,000.3,273.4,210907,,,A*7E $GPRMC,235959,A,4810.4357,N,00826.0305,E,002.3,275.0,210907,,,A*73 $GPRMC,235959,A,4810.4338,N,00826.0127,E,003.3,268.2,210907,,,A*7A $GPRMC,235959,A,4810.4337,N,00825.9926,E,003.1,277.7,210907,,,A*75 $GPRMC,235959,A,4810.4276,N,00825.9710,E,002.3,257.3,210907,,,A*73 $GPRMC,235959,A,4810.4285,N,00825.9663,E,001.1,273.5,210907,,,A*73 $GPRMC,235959,A,4810.4290,N,00825.9685,E,000.3,273.5,210907,,,A*71 $GPRMC,235959,A,4810.4285,N,00825.9622,E,002.5,266.0,210907,,,A*77 $GPRMC,235959,A,4810.4285,N,00825.9539,E,000.7,252.7,210907,,,A*70 $GPRMC,235959,A,4810.4272,N,00825.9387,E,002.9,256.8,210907,,,A*74 $GPRMC,235959,A,4810.4231,N,00825.9268,E,000.2,260.9,210907,,,A*73 $GPRMC,235959,A,4810.4201,N,00825.9089,E,002.2,234.3,210907,,,A*7E $GPRMC,235959,A,4810.4144,N,00825.9057,E,002.4,236.9,210907,,,A*71 $GPRMC,235959,A,4810.4150,N,00825.9022,E,000.5,236.9,210907,,,A*7D $GPRMC,235959,A,4810.4072,N,00825.8897,E,002.4,217.1,210907,,,A*7E $GPRMC,235959,A,4810.3965,N,00825.8889,E,002.0,178.9,210907,,,A*75 $GPRMC,235959,A,4810.3877,N,00825.8801,E,002.7,218.4,210907,,,A*76 $GPRMC,235959,A,4810.3781,N,00825.8757,E,002.5,217.1,210907,,,A*7C $GPRMC,235959,A,4810.3676,N,00825.8553,E,003.0,227.6,210907,,,A*7E $GPRMC,235959,A,4810.3602,N,00825.8451,E,003.3,230.4,210907,,,A*73 $GPRMC,235959,A,4810.3559,N,00825.8313,E,003.0,236.2,210907,,,A*70 $GPRMC,235959,A,4810.3534,N,00825.8261,E,002.0,231.2,210907,,,A*71 $GPRMC,235959,A,4810.3475,N,00825.8126,E,002.1,243.9,210907,,,A*77 $GPRMC,235959,A,4810.3392,N,00825.8000,E,002.2,230.0,210907,,,A*78 $GPRMC,235959,A,4810.3340,N,00825.7818,E,004.9,247.1,210907,,,A*7B $GPRMC,235959,A,4810.3417,N,00825.7692,E,001.9,351.9,210907,,,A*71 $GPRMC,235959,A,4810.3270,N,00825.7455,E,003.0,246.8,210907,,,A*74 $GPRMC,235959,A,4810.3262,N,00825.7195,E,009.4,327.6,210907,,,A*74 $GPRMC,235959,A,4810.3263,N,00825.7118,E,000.2,336.9,210907,,,A*72 $GPRMC,235959,A,4810.3235,N,00825.7037,E,002.2,307.5,210907,,,A*7B $GPRMC,235959,A,4810.3188,N,00825.6944,E,001.1,266.5,210907,,,A*79 $GPRMC,235959,A,4810.3163,N,00825.6808,E,001.6,263.8,210907,,,A*75 $GPRMC,235959,A,4810.3191,N,00825.6675,E,004.1,294.4,210907,,,A*73 $GPRMC,235959,A,4810.3130,N,00825.6543,E,003.5,254.2,210907,,,A*71 $GPRMC,235959,A,4810.3032,N,00825.6492,E,003.4,283.0,210907,,,A*7C $GPRMC,235959,A,4810.3009,N,00825.6308,E,002.4,261.2,210907,,,A*77 $GPRMC,235959,A,4810.2970,N,00825.6236,E,002.3,238.4,210907,,,A*78 $GPRMC,235959,A,4810.2952,N,00825.6060,E,002.8,238.4,210907,,,A*7F $GPRMC,235959,A,4810.2925,N,00825.5754,E,002.1,283.0,210907,,,A*7B $GPRMC,235959,A,4810.2910,N,00825.5626,E,003.9,283.0,210907,,,A*7E $GPRMC,235959,A,4810.2978,N,00825.5432,E,003.2,283.0,210907,,,A*7E $GPRMC,235959,A,4810.2896,N,00825.5244,E,004.1,212.9,210907,,,A*71 $GPRMC,235959,A,4810.2909,N,00825.5097,E,003.7,212.9,210907,,,A*7C $GPRMC,235959,A,4810.2893,N,00825.4846,E,003.2,261.1,210907,,,A*7B $GPRMC,235959,A,4810.2806,N,00825.4647,E,003.5,259.2,210907,,,A*7D $GPRMC,235959,A,4810.2816,N,00825.4537,E,002.7,287.7,210907,,,A*70 $GPRMC,235959,A,4810.2820,N,00825.4378,E,002.7,287.7,210907,,,A*77 $GPRMC,235959,A,4810.2765,N,00825.4167,E,004.5,196.2,210907,,,A*75 $GPRMC,235959,A,4810.2741,N,00825.3954,E,002.0,231.4,210907,,,A*7A $GPRMC,235959,A,4810.2669,N,00825.3906,E,003.4,114.1,210907,,,A*78 $GPRMC,235959,A,4810.2616,N,00825.3665,E,000.9,212.3,210907,,,A*73 $GPRMC,235959,A,4810.2590,N,00825.3460,E,002.2,212.3,210907,,,A*78 $GPRMC,235959,A,4810.2578,N,00825.3241,E,001.9,231.5,210907,,,A*79 $GPRMC,235959,A,4810.2629,N,00825.2992,E,003.9,277.2,210907,,,A*77 $GPRMC,235959,A,4810.2667,N,00825.2866,E,002.6,258.8,210907,,,A*7B $GPRMC,235959,A,4810.2666,N,00825.2748,E,001.3,274.7,210907,,,A*77 $GPRMC,235959,A,4810.2693,N,00825.2662,E,001.9,269.6,210907,,,A*7F $GPRMC,235959,A,4810.2766,N,00825.2651,E,001.2,269.6,210907,,,A*78 $GPRMC,235959,A,4810.2841,N,00825.2375,E,003.3,257.3,210907,,,A*70 $GPRMC,235959,A,4810.2855,N,00825.2457,E,004.2,288.1,210907,,,A*7D $GPRMC,235959,A,4810.2924,N,00825.2453,E,002.9,333.6,210907,,,A*79 $GPRMC,235959,A,4810.3013,N,00825.2453,E,002.0,307.6,210907,,,A*75 $GPRMC,235959,A,4810.3100,N,00825.2473,E,000.4,307.6,210907,,,A*78 $GPRMC,235959,A,4810.3170,N,00825.2482,E,002.8,333.3,210907,,,A*74 $GPRMC,235959,A,4810.3210,N,00825.2332,E,002.5,333.3,210907,,,A*7C $GPRMC,235959,A,4810.3206,N,00825.2149,E,002.5,243.2,210907,,,A*7E $GPRMC,235959,A,4810.3222,N,00825.2153,E,000.3,243.2,210907,,,A*7D $GPRMC,235959,A,4810.3240,N,00825.2079,E,002.1,265.2,210907,,,A*7D $GPRMC,235959,A,4810.3297,N,00825.1936,E,002.8,265.2,210907,,,A*73 $GPRMC,235959,A,4810.3293,N,00825.1717,E,002.9,277.7,210907,,,A*73 $GPRMC,235959,A,4810.3301,N,00825.1558,E,001.4,229.2,210907,,,A*7A $GPRMC,235959,A,4810.3400,N,00825.1573,E,002.6,263.0,210907,,,A*71 $GPRMC,235959,A,4810.3459,N,00825.1553,E,000.9,263.0,210907,,,A*7E $GPRMC,235959,A,4810.3546,N,00825.1591,E,002.1,342.7,210907,,,A*78 $GPRMC,235959,A,4810.3656,N,00825.1568,E,000.7,342.7,210907,,,A*72 $GPRMC,235959,A,4810.3687,N,00825.1631,E,000.6,342.7,210907,,,A*79 $GPRMC,235959,A,4810.3778,N,00825.1685,E,004.2,051.1,210907,,,A*7C $GPRMC,235959,A,4810.3840,N,00825.1703,E,002.2,051.1,210907,,,A*7F $GPRMC,235959,A,4810.4119,N,00825.1648,E,001.8,352.1,210907,,,A*70 $GPRMC,235959,A,4810.4181,N,00825.1616,E,001.4,355.9,210907,,,A*70 $GPRMC,235959,A,4810.4286,N,00825.1602,E,006.8,006.3,210907,,,A*79 $GPRMC,235959,A,4810.4448,N,00825.1703,E,003.7,359.4,210907,,,A*75 $GPRMC,235959,A,4810.4425,N,00825.1661,E,001.9,249.8,210907,,,A*71 $GPRMC,235959,A,4810.4497,N,00825.1670,E,001.8,330.9,210907,,,A*7E $GPRMC,235959,A,4810.4522,N,00825.1719,E,001.2,330.9,210907,,,A*79 $GPRMC,235959,A,4810.4605,N,00825.1786,E,004.9,013.1,210907,,,A*73 $GPRMC,235959,A,4810.4759,N,00825.1853,E,002.3,011.0,210907,,,A*79 $GPRMC,235959,A,4810.4866,N,00825.1866,E,002.9,007.2,210907,,,A*7A $GPRMC,235959,A,4810.5019,N,00825.1917,E,002.3,008.5,210907,,,A*72 $GPRMC,235959,A,4810.5127,N,00825.1906,E,002.9,342.8,210907,,,A*74 $GPRMC,235959,A,4810.5213,N,00825.1989,E,001.0,019.1,210907,,,A*73 $GPRMC,235959,A,4810.5303,N,00825.1997,E,001.1,357.9,210907,,,A*75 $GPRMC,235959,A,4810.5375,N,00825.2032,E,001.9,015.7,210907,,,A*7E $GPRMC,235959,A,4810.5439,N,00825.2087,E,001.1,059.7,210907,,,A*71 $GPRMC,235959,A,4810.5565,N,00825.2032,E,002.7,047.3,210907,,,A*73 $GPRMC,235959,A,4810.5711,N,00825.1995,E,000.4,352.4,210907,,,A*7D $GPRMC,235959,A,4810.5818,N,00825.1978,E,003.4,010.9,210907,,,A*7F $GPRMC,235959,A,4810.5861,N,00825.1986,E,000.2,010.9,210907,,,A*70 $GPRMC,235959,A,4810.5954,N,00825.1998,E,003.1,010.9,210907,,,A*72 $GPRMC,235959,A,4810.5943,N,00825.1975,E,001.6,178.3,210907,,,A*7E $GPRMC,235959,A,4810.5969,N,00825.1996,E,001.4,172.5,210907,,,A*79 $GPRMC,235959,A,4810.6137,N,00825.2067,E,004.4,043.2,210907,,,A*72 $GPRMC,235959,A,4810.6206,N,00825.2076,E,001.5,014.5,210907,,,A*78 $GPRMC,235959,A,4810.6349,N,00825.2046,E,001.4,317.3,210907,,,A*7F $GPRMC,235959,A,4810.6371,N,00825.2036,E,000.6,317.3,210907,,,A*7C $GPRMC,235959,A,4810.6455,N,00825.1854,E,003.1,307.7,210907,,,A*7F $GPRMC,235959,A,4810.6479,N,00825.1763,E,002.7,244.6,210907,,,A*70 $GPRMC,235959,A,4810.6557,N,00825.1731,E,005.4,182.8,210907,,,A*77 $GPRMC,235959,A,4810.6827,N,00825.1786,E,000.8,324.5,210907,,,A*71 $GPRMC,235959,A,4810.6984,N,00825.1726,E,003.3,354.6,210907,,,A*71 $GPRMC,235959,A,4810.7030,N,00825.1825,E,000.5,064.6,210907,,,A*77 $GPRMC,235959,A,4810.7132,N,00825.1785,E,003.4,003.8,210907,,,A*71 $GPRMC,235959,A,4810.7231,N,00825.1711,E,002.8,331.7,210907,,,A*76 $GPRMC,235959,A,4810.7283,N,00825.1650,E,001.1,278.4,210907,,,A*76 $GPRMC,235959,A,4810.7334,N,00825.1653,E,000.9,317.0,210907,,,A*75 $GPRMC,235959,A,4810.7463,N,00825.1618,E,001.8,335.9,210907,,,A*7B $GPRMC,235959,A,4810.7426,N,00825.1524,E,003.3,223.2,210907,,,A*78 $GPRMC,235959,A,4810.7503,N,00825.1393,E,002.8,261.1,210907,,,A*75 $GPRMC,235959,A,4810.7491,N,00825.1304,E,002.5,261.1,210907,,,A*74 $GPRMC,235959,A,4810.7465,N,00825.1212,E,002.9,258.1,210907,,,A*72 $GPRMC,235959,A,4810.7477,N,00825.1034,E,003.9,272.3,210907,,,A*76 $GPRMC,235959,A,4810.7477,N,00825.0927,E,002.0,261.7,210907,,,A*7E $GPRMC,235959,A,4810.7471,N,00825.0747,E,003.5,264.5,210907,,,A*7B $GPRMC,235959,A,4810.7444,N,00825.0713,E,000.5,264.5,210907,,,A*72 $GPRMC,235959,A,4810.7368,N,00825.0608,E,000.2,200.1,210907,,,A*7B $GPRMC,235959,A,4810.7402,N,00825.0382,E,002.3,246.7,210907,,,A*75 $GPRMC,235959,A,4810.7350,N,00825.0365,E,003.3,170.9,210907,,,A*7C $GPRMC,235959,A,4810.7370,N,00825.0287,E,000.5,117.2,210907,,,A*70 $GPRMC,235959,A,4810.7346,N,00825.0165,E,003.2,117.2,210907,,,A*7E $GPRMC,235959,A,4810.7373,N,00824.9844,E,006.7,274.9,210907,,,A*7D $GPRMC,235959,A,4810.7373,N,00824.9724,E,001.9,275.2,210907,,,A*7E $GPRMC,235959,A,4810.7329,N,00824.9527,E,003.7,276.9,210907,,,A*78 $GPRMC,235959,A,4810.7402,N,00824.9408,E,002.4,272.2,210907,,,A*79 $GPRMC,235959,A,4810.7428,N,00824.9053,E,002.7,258.8,210907,,,A*70 $GPRMC,235959,A,4810.7437,N,00824.8876,E,002.8,249.7,210907,,,A*79 $GPRMC,235959,A,4810.7349,N,00824.8687,E,004.6,214.9,210907,,,A*75 $GPRMC,235959,A,4810.7353,N,00824.8424,E,002.9,299.1,210907,,,A*76 $GPRMC,235959,A,4810.7377,N,00824.8361,E,005.7,297.9,210907,,,A*73 $GPRMC,235959,A,4810.7239,N,00824.8160,E,003.4,212.2,210907,,,A*71 $GPRMC,235959,A,4810.7253,N,00824.7892,E,002.9,303.1,210907,,,A*74 $GPRMC,235959,A,4810.7182,N,00824.7784,E,002.7,256.9,210907,,,A*7A $GPRMC,235959,A,4810.7144,N,00824.7689,E,002.0,264.7,210907,,,A*7E $GPRMC,235959,A,4810.7089,N,00824.7680,E,002.5,183.6,210907,,,A*70 $GPRMC,235959,A,4810.6953,N,00824.7718,E,004.0,151.5,210907,,,A*7C $GPRMC,235959,A,4810.6776,N,00824.7759,E,003.8,154.8,210907,,,A*7B $GPRMC,235959,A,4810.6653,N,00824.7771,E,001.6,151.5,210907,,,A*79 $GPRMC,235959,A,4810.6550,N,00824.7806,E,002.2,132.4,210907,,,A*7C $GPRMC,235959,A,4810.6422,N,00824.7911,E,003.5,157.5,210907,,,A*77 $GPRMC,235959,A,4810.6322,N,00824.7987,E,001.9,157.4,210907,,,A*7E $GPRMC,235959,A,4810.6227,N,00824.8042,E,002.0,146.6,210907,,,A*77 $GPRMC,235959,A,4810.6076,N,00824.8016,E,002.4,186.2,210907,,,A*75 $GPRMC,235959,A,4810.5979,N,00824.8018,E,003.3,165.8,210907,,,A*73 $GPRMC,235959,A,4810.5838,N,00824.8066,E,002.5,170.4,210907,,,A*79 $GPRMC,235959,A,4810.5750,N,00824.8084,E,003.1,184.3,210907,,,A*77 $GPRMC,235959,A,4810.5686,N,00824.8071,E,003.1,184.3,210907,,,A*7E $GPRMC,235959,A,4810.5596,N,00824.8063,E,002.0,177.2,210907,,,A*7E $GPRMC,235959,A,4810.5575,N,00824.8148,E,001.6,100.5,210907,,,A*77 $GPRMC,235959,A,4810.5595,N,00824.7941,E,003.9,254.5,210907,,,A*72 $GPRMC,235959,A,4810.5604,N,00824.7615,E,005.0,289.7,210907,,,A*73 $GPRMC,235959,A,4810.5593,N,00824.7492,E,002.4,267.5,210907,,,A*7E $GPRMC,235959,A,4810.5565,N,00824.7345,E,002.8,265.9,210907,,,A*74 $GPRMC,235959,A,4810.5556,N,00824.7147,E,003.1,257.3,210907,,,A*7D $GPRMC,235959,A,4810.5531,N,00824.7039,E,002.2,258.3,210907,,,A*70 $GPRMC,235959,A,4810.5499,N,00824.6872,E,003.2,267.4,210907,,,A*73 $GPRMC,235959,A,4810.5478,N,00824.6642,E,002.4,238.5,210907,,,A*73 $GPRMC,235959,A,4810.5458,N,00824.6503,E,003.5,260.2,210907,,,A*77 $GPRMC,235959,A,4810.5452,N,00824.6364,E,002.0,259.6,210907,,,A*79 $GPRMC,235959,A,4810.5437,N,00824.6416,E,003.9,250.2,210907,,,A*71 $GPRMC,235959,A,4810.5415,N,00824.6413,E,000.6,250.2,210907,,,A*78 $GPRMC,235959,A,4810.5362,N,00824.6250,E,002.1,257.3,210907,,,A*77 $GPRMC,235959,A,4810.5327,N,00824.6096,E,003.3,237.3,210907,,,A*72 $GPRMC,235959,A,4810.5298,N,00824.6014,E,003.2,269.7,210907,,,A*7F $GPRMC,235959,A,4810.5269,N,00824.5737,E,005.5,273.1,210907,,,A*76 $GPRMC,235959,A,4810.5258,N,00824.5563,E,002.1,257.5,210907,,,A*7C $GPRMC,235959,A,4810.5237,N,00824.5385,E,001.9,272.6,210907,,,A*7D $GPRMC,235959,A,4810.5175,N,00824.5197,E,002.5,258.5,210907,,,A*71 $GPRMC,235959,A,4810.5080,N,00824.5131,E,002.2,208.3,210907,,,A*73 $GPRMC,235959,A,4810.4906,N,00824.5199,E,002.5,106.2,210907,,,A*7E $GPRMC,235959,A,4810.4793,N,00824.4943,E,003.7,200.0,210907,,,A*7C $GPRMC,235959,A,4810.4717,N,00824.4772,E,002.1,191.5,210907,,,A*78 $GPRMC,235959,A,4810.4701,N,00824.4718,E,001.2,256.8,210907,,,A*79 $GPRMC,235959,A,4810.4692,N,00824.4671,E,000.8,256.8,210907,,,A*7E $GPRMC,235959,A,4810.4752,N,00824.4573,E,002.4,292.1,210907,,,A*77 $GPRMC,235959,A,4810.4744,N,00824.4603,E,000.8,134.4,210907,,,A*7D $GPRMC,235959,A,4810.4770,N,00824.4492,E,002.5,269.1,210907,,,A*7C $GPRMC,235959,A,4810.4767,N,00824.4363,E,003.2,243.2,210907,,,A*77 $GPRMC,235959,A,4810.4666,N,00824.4176,E,002.5,251.1,210907,,,A*7D $GPRMC,235959,A,4810.4667,N,00824.4221,E,001.0,237.8,210907,,,A*7F $GPRMC,235959,A,4810.4603,N,00824.4230,E,002.6,225.1,210907,,,A*7D $GPRMC,235959,A,4810.4555,N,00824.3986,E,002.6,249.6,210907,,,A*78 $GPRMC,235959,A,4810.4529,N,00824.3857,E,002.7,250.2,210907,,,A*79 $GPRMC,235959,A,4810.4529,N,00824.3821,E,000.4,250.2,210907,,,A*74 $GPRMC,235959,A,4810.4499,N,00824.3743,E,002.4,237.2,210907,,,A*7F $GPRMC,235959,A,4810.4460,N,00824.3586,E,001.8,258.7,210907,,,A*78 $GPRMC,235959,A,4810.4417,N,00824.3391,E,002.6,259.8,210907,,,A*71 $GPRMC,235959,A,4810.4529,N,00824.3097,E,002.7,333.1,210907,,,A*7B $GPRMC,235959,A,4810.4472,N,00824.2933,E,003.3,287.4,210907,,,A*72 $GPRMC,235959,A,4810.4397,N,00824.2805,E,002.3,287.4,210907,,,A*73 $GPRMC,235959,A,4810.4323,N,00824.2614,E,002.4,248.4,210907,,,A*7B $GPRMC,235959,A,4810.4279,N,00824.2495,E,002.0,274.3,210907,,,A*78 $GPRMC,235959,A,4810.4229,N,00824.2437,E,002.7,251.3,210907,,,A*79 $GPRMC,235959,A,4810.4171,N,00824.2464,E,002.3,158.9,210907,,,A*7D $GPRMC,235959,A,4810.3966,N,00824.2614,E,003.3,142.3,210907,,,A*7C $GPRMC,235959,A,4810.3920,N,00824.2689,E,002.5,142.3,210907,,,A*77 $GPRMC,235959,A,4810.3860,N,00824.2701,E,001.4,142.3,210907,,,A*7F $GPRMC,235959,A,4810.3725,N,00824.2796,E,002.8,149.3,210907,,,A*73 $GPRMC,235959,A,4810.3656,N,00824.2754,E,001.6,169.8,210907,,,A*71 $GPRMC,235959,A,4810.3586,N,00824.2919,E,002.5,144.4,210907,,,A*71 $GPRMC,235959,A,4810.3603,N,00824.2877,E,001.3,154.9,210907,,,A*7F $GPRMC,235959,A,4810.3613,N,00824.2878,E,000.2,189.8,210907,,,A*78 $GPRMC,235959,A,4810.3608,N,00824.2906,E,000.9,189.8,210907,,,A*7C $GPRMC,235959,A,4810.3637,N,00824.2821,E,002.5,287.1,210907,,,A*74 $GPRMC,235959,A,4810.3650,N,00824.2739,E,000.2,287.2,210907,,,A*7B $GPRMC,235959,A,4810.3660,N,00824.2813,E,000.4,287.2,210907,,,A*71 $GPRMC,235959,A,4810.3658,N,00824.2726,E,000.0,283.2,210907,,,A*7E $GPRMC,235959,A,4810.3668,N,00824.2763,E,001.3,304.6,210907,,,A*7E $GPRMC,235959,A,4810.3680,N,00824.2723,E,000.1,304.6,210907,,,A*78 $GPRMC,235959,A,4810.3675,N,00824.2712,E,000.2,304.6,210907,,,A*7B $GPRMC,235959,A,4810.3730,N,00824.2626,E,004.3,321.7,210907,,,A*78 $GPRMC,235959,A,4810.3871,N,00824.2615,E,003.0,352.9,210907,,,A*72 $GPRMC,235959,A,4810.3992,N,00824.2629,E,003.1,336.7,210907,,,A*76 $GPRMC,235959,A,4810.4066,N,00824.2618,E,002.8,334.5,210907,,,A*70 $GPRMC,235959,A,4810.4118,N,00824.2521,E,001.2,306.5,210907,,,A*75 $GPRMC,235959,A,4810.4251,N,00824.2426,E,002.9,330.6,210907,,,A*7F $GPRMC,235959,A,4810.4348,N,00824.2275,E,003.0,315.1,210907,,,A*74 $GPRMC,235959,A,4810.4397,N,00824.2161,E,002.9,312.5,210907,,,A*72 $GPRMC,235959,A,4810.4479,N,00824.2020,E,003.3,335.6,210907,,,A*70 $GPRMC,235959,A,4810.4516,N,00824.1908,E,002.6,326.4,210907,,,A*72 $GPRMC,235959,A,4810.4576,N,00824.1805,E,003.8,312.3,210907,,,A*75 $GPRMC,235959,A,4810.4368,N,00824.1867,E,001.8,296.1,210907,,,A*73 $GPRMC,235959,A,4810.4685,N,00824.1527,E,003.2,347.7,210907,,,A*75 $GPRMC,235959,A,4810.4861,N,00824.1356,E,004.3,323.9,210907,,,A*73 $GPRMC,235959,A,4810.4989,N,00824.1245,E,006.1,319.8,210907,,,A*77 $GPRMC,235959,A,4810.5166,N,00824.0996,E,003.5,332.5,210907,,,A*73 $GPRMC,235959,A,4810.5321,N,00824.0916,E,003.7,338.1,210907,,,A*7C $GPRMC,235959,A,4810.5400,N,00824.0948,E,002.2,013.1,210907,,,A*73 $GPRMC,235959,A,4810.5298,N,00824.1028,E,006.8,096.0,210907,,,A*7A $GPRMC,235959,A,4810.5322,N,00824.1096,E,002.0,340.0,210907,,,A*77 $GPRMC,235959,A,4810.5432,N,00824.1070,E,002.0,333.9,210907,,,A*78 $GPRMC,235959,A,4810.5456,N,00824.1050,E,000.7,333.9,210907,,,A*77 $GPRMC,235959,A,4810.5481,N,00824.0986,E,000.4,333.9,210907,,,A*74 $GPRMC,235959,A,4810.5445,N,00824.1012,E,000.7,333.9,210907,,,A*76 $GPRMC,235959,A,4810.5575,N,00824.1048,E,002.8,358.2,210907,,,A*7E $GPRMC,235959,A,4810.5630,N,00824.1039,E,002.6,358.2,210907,,,A*7E $GPRMC,235959,A,4810.5688,N,00824.1037,E,000.8,012.5,210907,,,A*7C $GPRMC,235959,A,4810.5792,N,00824.1013,E,007.7,012.0,210907,,,A*71 $GPRMC,235959,A,4810.5963,N,00824.0873,E,004.3,336.4,210907,,,A*78 $GPRMC,235959,A,4810.6023,N,00824.0874,E,000.7,336.4,210907,,,A*7B $GPRMC,235959,A,4810.6025,N,00824.0865,E,001.0,336.4,210907,,,A*72 $GPRMC,235959,A,4810.6045,N,00824.0842,E,000.1,313.2,210907,,,A*7C $GPRMC,235959,A,4810.6082,N,00824.0796,E,004.0,309.9,210907,,,A*7A $GPRMC,235959,A,4810.6168,N,00824.0664,E,001.6,335.6,210907,,,A*7A $GPRMC,235959,A,4810.6236,N,00824.0752,E,001.4,085.3,210907,,,A*70 $GPRMC,235959,A,4810.6356,N,00824.0653,E,001.9,342.6,210907,,,A*7B $GPRMC,235959,A,4810.6459,N,00824.0702,E,002.6,342.6,210907,,,A*78 $GPRMC,235959,A,4810.6525,N,00824.0827,E,003.6,031.0,210907,,,A*70 $GPRMC,235959,A,4810.6519,N,00824.1083,E,002.6,090.5,210907,,,A*7E $GPRMC,235959,A,4810.6576,N,00824.1133,E,002.8,038.7,210907,,,A*7F $GPRMC,235959,A,4810.6681,N,00824.1281,E,002.9,017.6,210907,,,A*7D $GPRMC,235959,A,4810.6762,N,00824.1397,E,002.7,017.6,210907,,,A*73 $GPRMC,235959,A,4810.6889,N,00824.1396,E,003.7,344.0,210907,,,A*73 $GPRMC,235959,A,4810.7015,N,00824.1449,E,002.5,017.9,210907,,,A*79 $GPRMC,235959,A,4810.7105,N,00824.1656,E,003.4,069.7,210907,,,A*7E $GPRMC,235959,A,4810.7109,N,00824.1845,E,002.6,069.7,210907,,,A*77 $GPRMC,235959,A,4810.7150,N,00824.1780,E,002.1,030.1,210907,,,A*79 $GPRMC,235959,A,4810.7179,N,00824.1882,E,003.0,323.4,210907,,,A*77 $GPRMC,235959,A,4810.7049,N,00824.2003,E,004.0,309.6,210907,,,A*74 $GPRMC,235959,A,4810.6876,N,00824.1888,E,005.8,168.9,210907,,,A*70 $GPRMC,235959,A,4810.6757,N,00824.1780,E,002.0,238.0,210907,,,A*72 $GPRMC,235959,A,4810.6745,N,00824.1857,E,003.7,256.8,210907,,,A*7E $GPRMC,235959,A,4810.6766,N,00824.2022,E,003.5,248.8,210907,,,A*73 $GPRMC,235959,A,4810.6884,N,00824.2116,E,002.0,005.0,210907,,,A*7B $GPRMC,235959,A,4810.7020,N,00824.2147,E,002.6,000.4,210907,,,A*76 $GPRMC,235959,A,4810.7084,N,00824.2237,E,002.6,000.4,210907,,,A*70 $GPRMC,235959,A,4810.7097,N,00824.2533,E,005.9,077.0,210907,,,A*73 $GPRMC,235959,A,4810.7143,N,00824.2604,E,001.4,077.0,210907,,,A*7F $GPRMC,235959,A,4810.7187,N,00824.2775,E,002.5,072.7,210907,,,A*79 $GPRMC,235959,A,4810.7258,N,00824.2854,E,005.5,060.8,210907,,,A*73 $GPRMC,235959,A,4810.7364,N,00824.2876,E,003.4,024.4,210907,,,A*7A $GPRMC,235959,A,4810.7510,N,00824.2857,E,003.8,322.3,210907,,,A*78 $GPRMC,235959,A,4810.7632,N,00824.2842,E,001.7,321.7,210907,,,A*7C $GPRMC,235959,A,4810.7745,N,00824.2825,E,003.4,001.8,210907,,,A*7F $GPRMC,235959,A,4810.7815,N,00824.2822,E,002.3,327.4,210907,,,A*71 $GPRMC,235959,A,4810.7876,N,00824.3063,E,008.0,106.1,210907,,,A*7F $GPRMC,235959,A,4810.7963,N,00824.3267,E,002.5,065.0,210907,,,A*7F $GPRMC,235959,A,4810.8064,N,00824.3337,E,002.4,001.8,210907,,,A*7D $GPRMC,235959,A,4810.8170,N,00824.3506,E,003.0,023.4,210907,,,A*74 $GPRMC,235959,A,4810.8203,N,00824.3779,E,003.1,069.4,210907,,,A*7C $GPRMC,235959,A,4810.8297,N,00824.3926,E,002.9,022.7,210907,,,A*79 $GPRMC,235959,A,4810.8366,N,00824.4062,E,004.1,033.3,210907,,,A*7E $GPRMC,235959,A,4810.8435,N,00824.4221,E,003.1,045.4,210907,,,A*75 $GPRMC,235959,A,4810.8472,N,00824.4417,E,002.8,064.4,210907,,,A*74 $GPRMC,235959,A,4810.8642,N,00824.4463,E,004.2,334.7,210907,,,A*76 $GPRMC,235959,A,4810.8639,N,00824.4759,E,003.1,028.2,210907,,,A*73 $GPRMC,235959,A,4810.8684,N,00824.5052,E,002.3,058.5,210907,,,A*7C $GPRMC,235959,A,4810.8736,N,00824.5011,E,002.2,058.5,210907,,,A*78 $GPRMC,235959,A,4810.8806,N,00824.5104,E,002.3,087.1,210907,,,A*7F $GPRMC,235959,A,4810.8867,N,00824.4946,E,001.0,072.0,210907,,,A*70 $GPRMC,235959,A,4810.8972,N,00824.4893,E,002.8,338.8,210907,,,A*7C $GPRMC,235959,A,4810.9010,N,00824.5072,E,004.1,009.7,210907,,,A*7D $GPRMC,235959,A,4810.9159,N,00824.4982,E,001.9,341.4,210907,,,A*7E $GPRMC,235959,A,4810.9259,N,00824.4982,E,002.1,340.7,210907,,,A*78 $GPRMC,235959,A,4810.9386,N,00824.5009,E,002.6,346.4,210907,,,A*7E $GPRMC,235959,A,4810.9426,N,00824.5052,E,002.9,001.6,210907,,,A*7A $GPRMC,235959,A,4810.9492,N,00824.5153,E,002.5,026.9,210907,,,A*7A $GPRMC,235959,A,4810.9659,N,00824.5099,E,006.1,336.4,210907,,,A*7B $GPRMC,235959,A,4810.9828,N,00824.4964,E,008.8,309.3,210907,,,A*7B $GPRMC,235959,A,4810.9807,N,00824.5333,E,003.6,005.8,210907,,,A*74 $GPRMC,235959,A,4810.9907,N,00824.5389,E,003.1,021.5,210907,,,A*71 $GPRMC,235959,A,4811.0028,N,00824.5489,E,003.6,050.8,210907,,,A*7A $GPRMC,235959,A,4811.0120,N,00824.5594,E,002.6,352.7,210907,,,A*79 $GPRMC,235959,A,4811.0200,N,00824.5701,E,004.7,070.7,210907,,,A*78 $GPRMC,235959,A,4811.0319,N,00824.5902,E,004.4,034.5,210907,,,A*74 $GPRMC,235959,A,4811.0436,N,00824.6003,E,006.0,074.0,210907,,,A*7E $GPRMC,235959,A,4811.0388,N,00824.6229,E,002.5,120.7,210907,,,A*7E $GPRMC,235959,A,4811.0274,N,00824.6673,E,008.1,115.4,210907,,,A*76 $GPRMC,235959,A,4811.0347,N,00824.6825,E,004.1,094.2,210907,,,A*71 $GPRMC,235959,A,4811.0423,N,00824.6975,E,005.3,077.0,210907,,,A*70